sensor_id;sensor_type;location;lat;lon;timestamp;temperature;humidity
5061;DHT22;2549;52.128;21.068;2023-03-04T00:02:26;4.60;99.50
5061;DHT22;2549;52.128;21.068;2023-03-04T00:04:52;4.60;99.00
5061;DHT22;2549;52.128;21.068;2023-03-04T00:07:19;4.60;99.00
5061;DHT22;2549;52.128;21.068;2023-03-04T00:09:46;4.60;99.20
5061;DHT22;2549;52.128;21.068;2023-03-04T00:12:13;4.60;99.20
5061;DHT22;2549;52.128;21.068;2023-03-04T00:14:40;4.50;99.10
5061;DHT22;2549;52.128;21.068;2023-03-04T00:17:07;4.60;99.10
5061;DHT22;2549;52.128;21.068;2023-03-04T00:19:34;4.60;99.10
5061;DHT22;2549;52.128;21.068;2023-03-04T00:22:02;4.50;99.20
5061;DHT22;2549;52.128;21.068;2023-03-04T00:24:30;4.60;99.20
5061;DHT22;2549;52.128;21.068;2023-03-04T00:26:57;4.60;99.10
5061;DHT22;2549;52.128;21.068;2023-03-04T00:29:24;4.60;99.60
5061;DHT22;2549;52.128;21.068;2023-03-04T00:31:51;4.60;99.10
5061;DHT22;2549;52.128;21.068;2023-03-04T00:34:18;4.70;99.20
5061;DHT22;2549;52.128;21.068;2023-03-04T00:36:45;4.70;99.10
5061;DHT22;2549;52.128;21.068;2023-03-04T00:39:12;4.60;99.00
5061;DHT22;2549;52.128;21.068;2023-03-04T00:41:39;4.50;99.10
5061;DHT22;2549;52.128;21.068;2023-03-04T00:44:06;4.50;99.30
5061;DHT22;2549;52.128;21.068;2023-03-04T00:46:33;4.60;99.20
5061;DHT22;2549;52.128;21.068;2023-03-04T00:49:00;4.60;98.90
5061;DHT22;2549;52.128;21.068;2023-03-04T00:51:27;4.60;99.40
5061;DHT22;2549;52.128;21.068;2023-03-04T00:53:54;4.60;99.20
5061;DHT22;2549;52.128;21.068;2023-03-04T00:56:21;4.50;99.00
5061;DHT22;2549;52.128;21.068;2023-03-04T00:58:48;4.50;99.20
5061;DHT22;2549;52.128;21.068;2023-03-04T01:01:15;4.50;99.50
5061;DHT22;2549;52.128;21.068;2023-03-04T01:03:42;4.50;99.30
5061;DHT22;2549;52.128;21.068;2023-03-04T01:06:08;4.50;99.30
5061;DHT22;2549;52.128;21.068;2023-03-04T01:08:36;4.50;99.30
5061;DHT22;2549;52.128;21.068;2023-03-04T01:11:04;4.50;99.30
5061;DHT22;2549;52.128;21.068;2023-03-04T01:13:31;4.50;99.40
5061;DHT22;2549;52.128;21.068;2023-03-04T01:15:58;4.50;99.40
5061;DHT22;2549;52.128;21.068;2023-03-04T01:18:26;4.50;99.40
5061;DHT22;2549;52.128;21.068;2023-03-04T01:20:53;4.50;99.60
5061;DHT22;2549;52.128;21.068;2023-03-04T01:23:20;4.60;99.60
5061;DHT22;2549;52.128;21.068;2023-03-04T01:25:47;4.60;99.60
5061;DHT22;2549;52.128;21.068;2023-03-04T01:28:14;4.50;99.60
5061;DHT22;2549;52.128;21.068;2023-03-04T01:30:41;4.60;99.50
5061;DHT22;2549;52.128;21.068;2023-03-04T01:33:07;4.50;99.60
5061;DHT22;2549;52.128;21.068;2023-03-04T01:35:34;4.50;99.60
5061;DHT22;2549;52.128;21.068;2023-03-04T01:38:01;4.60;99.60
5061;DHT22;2549;52.128;21.068;2023-03-04T01:40:28;4.60;99.70
5061;DHT22;2549;52.128;21.068;2023-03-04T01:42:55;4.50;99.20
5061;DHT22;2549;52.128;21.068;2023-03-04T01:45:22;4.40;99.40
5061;DHT22;2549;52.128;21.068;2023-03-04T01:47:49;4.40;99.40
5061;DHT22;2549;52.128;21.068;2023-03-04T01:50:37;4.50;99.50
5061;DHT22;2549;52.128;21.068;2023-03-04T01:53:05;4.40;99.90
5061;DHT22;2549;52.128;21.068;2023-03-04T01:55:32;4.30;99.90
5061;DHT22;2549;52.128;21.068;2023-03-04T01:57:59;4.30;99.90
5061;DHT22;2549;52.128;21.068;2023-03-04T02:00:31;4.30;99.90
5061;DHT22;2549;52.128;21.068;2023-03-04T02:03:07;4.30;99.90
5061;DHT22;2549;52.128;21.068;2023-03-04T02:05:36;4.30;99.90
5061;DHT22;2549;52.128;21.068;2023-03-04T02:08:04;4.30;99.90
5061;DHT22;2549;52.128;21.068;2023-03-04T02:10:32;4.30;99.90
5061;DHT22;2549;52.128;21.068;2023-03-04T02:12:59;4.30;99.80
5061;DHT22;2549;52.128;21.068;2023-03-04T02:15:27;4.40;99.60
5061;DHT22;2549;52.128;21.068;2023-03-04T02:17:55;4.40;99.40
5061;DHT22;2549;52.128;21.068;2023-03-04T02:25:32;4.40;99.40
5061;DHT22;2549;52.128;21.068;2023-03-04T02:28:01;4.50;99.50
5061;DHT22;2549;52.128;21.068;2023-03-04T02:30:28;4.50;99.60
5061;DHT22;2549;52.128;21.068;2023-03-04T02:32:55;4.50;99.50
5061;DHT22;2549;52.128;21.068;2023-03-04T02:35:22;4.50;99.60
5061;DHT22;2549;52.128;21.068;2023-03-04T02:37:49;4.50;99.70
5061;DHT22;2549;52.128;21.068;2023-03-04T02:40:32;4.50;99.90
5061;DHT22;2549;52.128;21.068;2023-03-04T02:43:00;4.50;99.90
5061;DHT22;2549;52.128;21.068;2023-03-04T02:48:09;4.60;99.80
5061;DHT22;2549;52.128;21.068;2023-03-04T02:50:48;4.60;99.90
5061;DHT22;2549;52.128;21.068;2023-03-04T02:53:16;4.60;99.90
5061;DHT22;2549;52.128;21.068;2023-03-04T02:55:43;4.70;99.80
5061;DHT22;2549;52.128;21.068;2023-03-04T02:58:10;4.60;99.90
5061;DHT22;2549;52.128;21.068;2023-03-04T03:00:38;4.60;99.80
5061;DHT22;2549;52.128;21.068;2023-03-04T03:03:05;4.60;99.80
5061;DHT22;2549;52.128;21.068;2023-03-04T03:05:33;4.70;99.90
5061;DHT22;2549;52.128;21.068;2023-03-04T03:08:01;4.70;99.90
5061;DHT22;2549;52.128;21.068;2023-03-04T03:10:27;4.70;99.90
5061;DHT22;2549;52.128;21.068;2023-03-04T03:12:54;4.70;99.80
5061;DHT22;2549;52.128;21.068;2023-03-04T03:15:21;4.80;99.90
5061;DHT22;2549;52.128;21.068;2023-03-04T03:17:48;4.80;99.90
5061;DHT22;2549;52.128;21.068;2023-03-04T03:20:16;4.80;99.80
5061;DHT22;2549;52.128;21.068;2023-03-04T03:22:43;4.80;99.90
5061;DHT22;2549;52.128;21.068;2023-03-04T03:25:12;4.90;99.90
5061;DHT22;2549;52.128;21.068;2023-03-04T03:27:39;4.90;99.90
5061;DHT22;2549;52.128;21.068;2023-03-04T03:30:08;4.90;99.80
5061;DHT22;2549;52.128;21.068;2023-03-04T03:32:36;4.80;99.80
5061;DHT22;2549;52.128;21.068;2023-03-04T03:35:03;4.80;99.90
5061;DHT22;2549;52.128;21.068;2023-03-04T03:37:30;4.80;99.90
5061;DHT22;2549;52.128;21.068;2023-03-04T03:39:57;4.80;99.90
5061;DHT22;2549;52.128;21.068;2023-03-04T03:42:24;4.90;99.90
5061;DHT22;2549;52.128;21.068;2023-03-04T03:44:51;4.80;99.90
5061;DHT22;2549;52.128;21.068;2023-03-04T03:47:18;4.80;99.90
5061;DHT22;2549;52.128;21.068;2023-03-04T03:49:45;4.80;99.90
5061;DHT22;2549;52.128;21.068;2023-03-04T03:52:12;4.90;99.90
5061;DHT22;2549;52.128;21.068;2023-03-04T03:54:39;4.90;99.90
5061;DHT22;2549;52.128;21.068;2023-03-04T03:57:06;4.90;99.90
5061;DHT22;2549;52.128;21.068;2023-03-04T03:59:33;4.90;99.90
5061;DHT22;2549;52.128;21.068;2023-03-04T04:02:00;4.80;99.90
5061;DHT22;2549;52.128;21.068;2023-03-04T04:04:27;4.80;99.90
5061;DHT22;2549;52.128;21.068;2023-03-04T04:06:53;4.90;99.90
5061;DHT22;2549;52.128;21.068;2023-03-04T04:09:20;4.90;99.90
5061;DHT22;2549;52.128;21.068;2023-03-04T04:11:47;5.00;99.90
5061;DHT22;2549;52.128;21.068;2023-03-04T04:14:14;5.00;99.90
5061;DHT22;2549;52.128;21.068;2023-03-04T04:16:41;5.00;99.90
5061;DHT22;2549;52.128;21.068;2023-03-04T04:19:16;4.90;99.90
5061;DHT22;2549;52.128;21.068;2023-03-04T04:21:44;5.00;99.90
5061;DHT22;2549;52.128;21.068;2023-03-04T04:24:11;5.00;99.90
5061;DHT22;2549;52.128;21.068;2023-03-04T04:26:38;4.90;99.90
5061;DHT22;2549;52.128;21.068;2023-03-04T04:29:05;5.00;99.90
5061;DHT22;2549;52.128;21.068;2023-03-04T04:31:32;5.00;99.90
5061;DHT22;2549;52.128;21.068;2023-03-04T04:33:59;5.00;99.90
5061;DHT22;2549;52.128;21.068;2023-03-04T04:36:26;5.00;99.90
5061;DHT22;2549;52.128;21.068;2023-03-04T04:38:53;5.00;99.90
5061;DHT22;2549;52.128;21.068;2023-03-04T04:41:30;5.00;99.90
5061;DHT22;2549;52.128;21.068;2023-03-04T04:43:58;5.00;99.90
5061;DHT22;2549;52.128;21.068;2023-03-04T04:46:25;5.10;99.90
5061;DHT22;2549;52.128;21.068;2023-03-04T04:48:52;5.10;99.90
5061;DHT22;2549;52.128;21.068;2023-03-04T04:51:19;5.10;99.90
5061;DHT22;2549;52.128;21.068;2023-03-04T04:53:46;5.00;99.90
5061;DHT22;2549;52.128;21.068;2023-03-04T04:56:19;5.00;99.90
5061;DHT22;2549;52.128;21.068;2023-03-04T04:58:47;5.10;99.90
5061;DHT22;2549;52.128;21.068;2023-03-04T05:01:14;5.10;99.90
5061;DHT22;2549;52.128;21.068;2023-03-04T05:03:42;5.20;99.90
5061;DHT22;2549;52.128;21.068;2023-03-04T05:06:10;5.20;99.90
5061;DHT22;2549;52.128;21.068;2023-03-04T05:08:38;5.20;99.90
5061;DHT22;2549;52.128;21.068;2023-03-04T05:11:05;5.20;99.90
5061;DHT22;2549;52.128;21.068;2023-03-04T05:13:32;5.20;99.90
5061;DHT22;2549;52.128;21.068;2023-03-04T05:16:00;5.20;99.90
5061;DHT22;2549;52.128;21.068;2023-03-04T05:18:28;5.20;99.90
5061;DHT22;2549;52.128;21.068;2023-03-04T05:20:58;5.20;99.90
5061;DHT22;2549;52.128;21.068;2023-03-04T05:23:26;5.20;99.90
5061;DHT22;2549;52.128;21.068;2023-03-04T05:25:53;5.20;99.90
5061;DHT22;2549;52.128;21.068;2023-03-04T05:28:21;5.20;99.90
5061;DHT22;2549;52.128;21.068;2023-03-04T05:30:48;5.20;99.90
5061;DHT22;2549;52.128;21.068;2023-03-04T05:33:16;5.20;99.90
5061;DHT22;2549;52.128;21.068;2023-03-04T05:35:44;5.20;99.90
5061;DHT22;2549;52.128;21.068;2023-03-04T05:38:13;5.20;99.90
5061;DHT22;2549;52.128;21.068;2023-03-04T05:40:41;5.20;99.90
5061;DHT22;2549;52.128;21.068;2023-03-04T05:43:08;5.30;99.90
5061;DHT22;2549;52.128;21.068;2023-03-04T05:45:35;5.30;99.90
5061;DHT22;2549;52.128;21.068;2023-03-04T05:48:03;5.30;99.90
5061;DHT22;2549;52.128;21.068;2023-03-04T05:50:31;5.30;99.90
5061;DHT22;2549;52.128;21.068;2023-03-04T05:52:58;5.30;99.90
5061;DHT22;2549;52.128;21.068;2023-03-04T05:55:25;5.30;99.90
5061;DHT22;2549;52.128;21.068;2023-03-04T05:57:53;5.30;99.90
5061;DHT22;2549;52.128;21.068;2023-03-04T06:00:20;5.40;99.90
5061;DHT22;2549;52.128;21.068;2023-03-04T06:02:47;5.30;99.90
5061;DHT22;2549;52.128;21.068;2023-03-04T06:05:14;5.40;99.90
5061;DHT22;2549;52.128;21.068;2023-03-04T06:07:42;5.40;99.90
5061;DHT22;2549;52.128;21.068;2023-03-04T06:10:11;5.30;99.90
5061;DHT22;2549;52.128;21.068;2023-03-04T06:12:37;5.40;99.90
5061;DHT22;2549;52.128;21.068;2023-03-04T06:15:05;5.40;99.90
5061;DHT22;2549;52.128;21.068;2023-03-04T06:17:32;5.40;99.90
5061;DHT22;2549;52.128;21.068;2023-03-04T06:19:59;5.30;99.90
5061;DHT22;2549;52.128;21.068;2023-03-04T06:22:26;5.30;99.90
5061;DHT22;2549;52.128;21.068;2023-03-04T06:24:53;5.30;99.90
5061;DHT22;2549;52.128;21.068;2023-03-04T06:27:20;5.30;99.90
5061;DHT22;2549;52.128;21.068;2023-03-04T06:29:46;5.30;99.90
5061;DHT22;2549;52.128;21.068;2023-03-04T06:32:13;5.40;99.90
5061;DHT22;2549;52.128;21.068;2023-03-04T06:34:40;5.40;99.90
5061;DHT22;2549;52.128;21.068;2023-03-04T06:37:07;5.40;99.90
5061;DHT22;2549;52.128;21.068;2023-03-04T06:39:34;5.40;99.90
5061;DHT22;2549;52.128;21.068;2023-03-04T06:42:00;5.40;99.90
5061;DHT22;2549;52.128;21.068;2023-03-04T06:44:27;5.40;99.90
5061;DHT22;2549;52.128;21.068;2023-03-04T06:46:54;5.40;99.90
5061;DHT22;2549;52.128;21.068;2023-03-04T06:49:21;5.40;99.90
5061;DHT22;2549;52.128;21.068;2023-03-04T06:51:48;5.40;99.90
5061;DHT22;2549;52.128;21.068;2023-03-04T06:54:15;5.40;99.90
5061;DHT22;2549;52.128;21.068;2023-03-04T06:56:42;5.40;99.90
5061;DHT22;2549;52.128;21.068;2023-03-04T06:59:09;5.40;99.90
5061;DHT22;2549;52.128;21.068;2023-03-04T07:01:35;5.40;99.90
5061;DHT22;2549;52.128;21.068;2023-03-04T07:04:03;5.50;99.90
5061;DHT22;2549;52.128;21.068;2023-03-04T07:06:30;5.40;99.90
5061;DHT22;2549;52.128;21.068;2023-03-04T07:08:57;5.40;99.90
5061;DHT22;2549;52.128;21.068;2023-03-04T07:11:24;5.50;99.90
5061;DHT22;2549;52.128;21.068;2023-03-04T07:13:52;5.50;99.90
5061;DHT22;2549;52.128;21.068;2023-03-04T07:16:20;5.50;99.90
5061;DHT22;2549;52.128;21.068;2023-03-04T07:18:48;5.40;99.90
5061;DHT22;2549;52.128;21.068;2023-03-04T07:21:16;5.50;99.90
5061;DHT22;2549;52.128;21.068;2023-03-04T07:23:43;5.50;99.90
5061;DHT22;2549;52.128;21.068;2023-03-04T07:26:10;5.40;99.90
5061;DHT22;2549;52.128;21.068;2023-03-04T07:28:37;5.40;99.90
5061;DHT22;2549;52.128;21.068;2023-03-04T07:33:49;5.50;99.90
5061;DHT22;2549;52.128;21.068;2023-03-04T07:36:16;5.60;99.90
5061;DHT22;2549;52.128;21.068;2023-03-04T07:38:46;5.60;99.90
5061;DHT22;2549;52.128;21.068;2023-03-04T07:41:14;5.60;99.90
5061;DHT22;2549;52.128;21.068;2023-03-04T07:43:42;5.50;99.90
5061;DHT22;2549;52.128;21.068;2023-03-04T07:46:09;5.60;99.90
5061;DHT22;2549;52.128;21.068;2023-03-04T07:48:36;5.60;99.90
5061;DHT22;2549;52.128;21.068;2023-03-04T07:51:12;5.60;99.90
5061;DHT22;2549;52.128;21.068;2023-03-04T07:53:44;5.60;99.90
5061;DHT22;2549;52.128;21.068;2023-03-04T07:56:13;5.60;99.90
5061;DHT22;2549;52.128;21.068;2023-03-04T07:58:41;5.60;99.80
5061;DHT22;2549;52.128;21.068;2023-03-04T08:03:37;5.60;99.90
5061;DHT22;2549;52.128;21.068;2023-03-04T08:06:05;5.60;99.80
5061;DHT22;2549;52.128;21.068;2023-03-04T08:08:33;5.60;99.90
5061;DHT22;2549;52.128;21.068;2023-03-04T08:11:06;5.70;99.80
5061;DHT22;2549;52.128;21.068;2023-03-04T08:13:34;5.70;99.60
5061;DHT22;2549;52.128;21.068;2023-03-04T08:16:01;5.70;99.60
5061;DHT22;2549;52.128;21.068;2023-03-04T08:18:28;5.70;99.60
5061;DHT22;2549;52.128;21.068;2023-03-04T08:20:55;5.70;99.60
5061;DHT22;2549;52.128;21.068;2023-03-04T08:23:22;5.60;99.50
5061;DHT22;2549;52.128;21.068;2023-03-04T08:25:50;5.60;99.60
5061;DHT22;2549;52.128;21.068;2023-03-04T08:28:17;5.60;99.60
5061;DHT22;2549;52.128;21.068;2023-03-04T08:30:44;5.60;99.50
5061;DHT22;2549;52.128;21.068;2023-03-04T08:33:11;5.70;99.50
5061;DHT22;2549;52.128;21.068;2023-03-04T08:35:39;5.70;99.40
5061;DHT22;2549;52.128;21.068;2023-03-04T08:38:06;5.80;99.80
5061;DHT22;2549;52.128;21.068;2023-03-04T08:40:33;5.80;99.20
5061;DHT22;2549;52.128;21.068;2023-03-04T08:42:59;5.70;99.20
5061;DHT22;2549;52.128;21.068;2023-03-04T08:45:26;5.70;99.40
5061;DHT22;2549;52.128;21.068;2023-03-04T08:47:53;5.70;99.40
5061;DHT22;2549;52.128;21.068;2023-03-04T08:50:20;5.70;99.20
5061;DHT22;2549;52.128;21.068;2023-03-04T08:52:48;5.70;99.40
5061;DHT22;2549;52.128;21.068;2023-03-04T08:55:15;5.70;99.40
5061;DHT22;2549;52.128;21.068;2023-03-04T08:57:42;5.70;99.50
5061;DHT22;2549;52.128;21.068;2023-03-04T09:00:09;5.70;99.50
5061;DHT22;2549;52.128;21.068;2023-03-04T09:02:36;5.70;99.50
5061;DHT22;2549;52.128;21.068;2023-03-04T09:05:04;5.70;99.50
5061;DHT22;2549;52.128;21.068;2023-03-04T09:07:31;5.70;99.60
5061;DHT22;2549;52.128;21.068;2023-03-04T09:09:58;5.70;99.70
5061;DHT22;2549;52.128;21.068;2023-03-04T09:12:25;5.90;99.40
5061;DHT22;2549;52.128;21.068;2023-03-04T09:14:52;5.90;99.30
5061;DHT22;2549;52.128;21.068;2023-03-04T09:17:36;5.90;99.40
5061;DHT22;2549;52.128;21.068;2023-03-04T09:20:04;6.00;99.30
5061;DHT22;2549;52.128;21.068;2023-03-04T09:22:31;5.90;99.30
5061;DHT22;2549;52.128;21.068;2023-03-04T09:24:58;5.90;99.30
5061;DHT22;2549;52.128;21.068;2023-03-04T09:27:25;5.90;99.40
5061;DHT22;2549;52.128;21.068;2023-03-04T09:29:52;5.90;99.40
5061;DHT22;2549;52.128;21.068;2023-03-04T09:32:18;5.90;99.60
5061;DHT22;2549;52.128;21.068;2023-03-04T09:34:45;5.90;99.50
5061;DHT22;2549;52.128;21.068;2023-03-04T09:37:12;6.00;99.40
5061;DHT22;2549;52.128;21.068;2023-03-04T09:39:39;5.90;99.40
5061;DHT22;2549;52.128;21.068;2023-03-04T09:42:08;5.90;99.50
5061;DHT22;2549;52.128;21.068;2023-03-04T09:44:38;5.90;99.50
5061;DHT22;2549;52.128;21.068;2023-03-04T09:47:14;5.90;99.80
5061;DHT22;2549;52.128;21.068;2023-03-04T09:49:44;5.90;99.70
5061;DHT22;2549;52.128;21.068;2023-03-04T09:57:26;6.10;99.60
5061;DHT22;2549;52.128;21.068;2023-03-04T10:03:04;6.00;99.60
5061;DHT22;2549;52.128;21.068;2023-03-04T10:05:38;6.10;99.60
5061;DHT22;2549;52.128;21.068;2023-03-04T10:08:26;6.10;99.70
5061;DHT22;2549;52.128;21.068;2023-03-04T10:10:57;6.10;99.80
5061;DHT22;2549;52.128;21.068;2023-03-04T10:13:39;6.10;99.60
5061;DHT22;2549;52.128;21.068;2023-03-04T10:16:12;6.20;99.70
5061;DHT22;2549;52.128;21.068;2023-03-04T10:18:53;6.20;99.60
5061;DHT22;2549;52.128;21.068;2023-03-04T10:21:41;6.20;99.70
5061;DHT22;2549;52.128;21.068;2023-03-04T10:24:13;6.20;99.50
5061;DHT22;2549;52.128;21.068;2023-03-04T10:26:45;6.20;99.70
5061;DHT22;2549;52.128;21.068;2023-03-04T10:29:16;6.20;99.60
5061;DHT22;2549;52.128;21.068;2023-03-04T10:31:44;6.20;99.70
5061;DHT22;2549;52.128;21.068;2023-03-04T10:34:13;6.30;99.60
5061;DHT22;2549;52.128;21.068;2023-03-04T10:39:41;6.30;99.40
5061;DHT22;2549;52.128;21.068;2023-03-04T10:44:56;6.30;99.60
5061;DHT22;2549;52.128;21.068;2023-03-04T10:47:29;6.30;99.50
5061;DHT22;2549;52.128;21.068;2023-03-04T10:49:59;6.30;99.50
5061;DHT22;2549;52.128;21.068;2023-03-04T10:52:32;6.40;99.70
5061;DHT22;2549;52.128;21.068;2023-03-04T10:55:15;6.50;99.60
5061;DHT22;2549;52.128;21.068;2023-03-04T10:57:45;6.50;99.50
5061;DHT22;2549;52.128;21.068;2023-03-04T11:02:45;6.50;99.70
5061;DHT22;2549;52.128;21.068;2023-03-04T11:05:21;6.40;99.80
5061;DHT22;2549;52.128;21.068;2023-03-04T11:07:53;6.50;99.90
5061;DHT22;2549;52.128;21.068;2023-03-04T11:16:01;6.40;99.90
5061;DHT22;2549;52.128;21.068;2023-03-04T11:18:40;6.40;99.90
5061;DHT22;2549;52.128;21.068;2023-03-04T11:21:24;6.40;99.90
5061;DHT22;2549;52.128;21.068;2023-03-04T11:24:04;6.40;99.90
5061;DHT22;2549;52.128;21.068;2023-03-04T11:26:52;6.30;99.90
5061;DHT22;2549;52.128;21.068;2023-03-04T11:29:32;6.40;99.90
5061;DHT22;2549;52.128;21.068;2023-03-04T11:34:48;6.60;99.90
5061;DHT22;2549;52.128;21.068;2023-03-04T11:37:40;6.60;99.90
5061;DHT22;2549;52.128;21.068;2023-03-04T11:40:22;6.70;99.90
5061;DHT22;2549;52.128;21.068;2023-03-04T11:43:10;6.70;99.90
5061;DHT22;2549;52.128;21.068;2023-03-04T11:51:05;6.70;99.90
5061;DHT22;2549;52.128;21.068;2023-03-04T11:54:15;6.70;99.90
5061;DHT22;2549;52.128;21.068;2023-03-04T12:01:58;6.80;99.90
5061;DHT22;2549;52.128;21.068;2023-03-04T12:07:39;6.90;99.90
5061;DHT22;2549;52.128;21.068;2023-03-04T12:10:31;6.90;99.90
5061;DHT22;2549;52.128;21.068;2023-03-04T12:19:07;6.80;99.90
5061;DHT22;2549;52.128;21.068;2023-03-04T12:21:56;6.90;99.90
5061;DHT22;2549;52.128;21.068;2023-03-04T12:27:50;6.90;99.90
5061;DHT22;2549;52.128;21.068;2023-03-04T12:33:02;6.90;99.90
5061;DHT22;2549;52.128;21.068;2023-03-04T12:35:40;6.90;99.90
5061;DHT22;2549;52.128;21.068;2023-03-04T12:43:57;6.50;99.90
5061;DHT22;2549;52.128;21.068;2023-03-04T12:52:26;6.50;99.90
5061;DHT22;2549;52.128;21.068;2023-03-04T12:55:18;6.50;99.90
5061;DHT22;2549;52.128;21.068;2023-03-04T12:57:47;6.70;99.90
5061;DHT22;2549;52.128;21.068;2023-03-04T13:03:10;6.80;99.90
5061;DHT22;2549;52.128;21.068;2023-03-04T13:06:09;6.90;99.90
5061;DHT22;2549;52.128;21.068;2023-03-04T13:08:48;6.80;99.90
5061;DHT22;2549;52.128;21.068;2023-03-04T13:16:48;6.90;99.90
5061;DHT22;2549;52.128;21.068;2023-03-04T13:19:51;6.90;99.90
5061;DHT22;2549;52.128;21.068;2023-03-04T13:22:34;6.90;99.90
5061;DHT22;2549;52.128;21.068;2023-03-04T13:44:28;7.00;99.90
5061;DHT22;2549;52.128;21.068;2023-03-04T13:46:39;7.00;99.90
5061;DHT22;2549;52.128;21.068;2023-03-04T13:49:20;7.10;99.90
5061;DHT22;2549;52.128;21.068;2023-03-04T13:51:47;7.10;99.90
5061;DHT22;2549;52.128;21.068;2023-03-04T13:54:32;7.00;99.90
5061;DHT22;2549;52.128;21.068;2023-03-04T13:59:48;7.10;99.90
5061;DHT22;2549;52.128;21.068;2023-03-04T14:02:15;7.10;99.90
5061;DHT22;2549;52.128;21.068;2023-03-04T14:04:46;7.10;99.90
5061;DHT22;2549;52.128;21.068;2023-03-04T14:07:33;7.00;99.90
5061;DHT22;2549;52.128;21.068;2023-03-04T14:12:36;6.80;99.90
5061;DHT22;2549;52.128;21.068;2023-03-04T14:17:35;6.50;99.90
5061;DHT22;2549;52.128;21.068;2023-03-04T14:20:26;6.50;99.90
5061;DHT22;2549;52.128;21.068;2023-03-04T14:22:51;6.50;99.90
5061;DHT22;2549;52.128;21.068;2023-03-04T14:27:45;6.50;99.90
5061;DHT22;2549;52.128;21.068;2023-03-04T14:33:11;6.40;99.90
5061;DHT22;2549;52.128;21.068;2023-03-04T14:35:45;6.50;99.20
5061;DHT22;2549;52.128;21.068;2023-03-04T14:41:16;6.50;98.40
5061;DHT22;2549;52.128;21.068;2023-03-04T14:43:58;6.50;98.00
5061;DHT22;2549;52.128;21.068;2023-03-04T14:46:30;6.50;97.60
5061;DHT22;2549;52.128;21.068;2023-03-04T14:48:58;6.50;97.30
5061;DHT22;2549;52.128;21.068;2023-03-04T14:53:58;6.60;97.10
5061;DHT22;2549;52.128;21.068;2023-03-04T14:56:27;6.60;97.20
5061;DHT22;2549;52.128;21.068;2023-03-04T14:58:56;6.60;96.90
5061;DHT22;2549;52.128;21.068;2023-03-04T15:01:35;6.60;96.50
5061;DHT22;2549;52.128;21.068;2023-03-04T15:04:08;6.60;95.80
5061;DHT22;2549;52.128;21.068;2023-03-04T15:06:51;6.50;95.30
5061;DHT22;2549;52.128;21.068;2023-03-04T15:09:23;6.40;94.50
5061;DHT22;2549;52.128;21.068;2023-03-04T15:11:58;6.40;94.50
5061;DHT22;2549;52.128;21.068;2023-03-04T15:14:42;6.40;94.00
5061;DHT22;2549;52.128;21.068;2023-03-04T15:22:29;6.40;93.30
5061;DHT22;2549;52.128;21.068;2023-03-04T15:24:56;6.50;93.60
5061;DHT22;2549;52.128;21.068;2023-03-04T15:27:24;6.60;93.60
5061;DHT22;2549;52.128;21.068;2023-03-04T15:29:52;6.80;93.20
5061;DHT22;2549;52.128;21.068;2023-03-04T15:32:25;6.70;93.00
5061;DHT22;2549;52.128;21.068;2023-03-04T15:34:52;6.80;93.10
5061;DHT22;2549;52.128;21.068;2023-03-04T15:37:25;6.60;92.40
5061;DHT22;2549;52.128;21.068;2023-03-04T15:39:55;6.60;91.70
5061;DHT22;2549;52.128;21.068;2023-03-04T15:42:23;6.60;86.60
5061;DHT22;2549;52.128;21.068;2023-03-04T15:44:50;6.60;83.30
5061;DHT22;2549;52.128;21.068;2023-03-04T15:47:17;6.50;81.20
5061;DHT22;2549;52.128;21.068;2023-03-04T15:49:44;6.30;79.00
5061;DHT22;2549;52.128;21.068;2023-03-04T15:52:18;6.20;78.40
5061;DHT22;2549;52.128;21.068;2023-03-04T15:54:47;6.30;76.50
5061;DHT22;2549;52.128;21.068;2023-03-04T15:57:25;6.10;73.80
5061;DHT22;2549;52.128;21.068;2023-03-04T15:59:52;6.20;75.30
5061;DHT22;2549;52.128;21.068;2023-03-04T16:02:22;6.20;75.70
5061;DHT22;2549;52.128;21.068;2023-03-04T16:04:49;6.00;75.60
5061;DHT22;2549;52.128;21.068;2023-03-04T16:07:23;5.80;76.20
5061;DHT22;2549;52.128;21.068;2023-03-04T16:09:56;5.80;77.00
5061;DHT22;2549;52.128;21.068;2023-03-04T16:12:25;5.80;77.40
5061;DHT22;2549;52.128;21.068;2023-03-04T16:14:53;5.90;77.50
5061;DHT22;2549;52.128;21.068;2023-03-04T16:17:20;5.90;77.70
5061;DHT22;2549;52.128;21.068;2023-03-04T16:19:47;5.90;78.90
5061;DHT22;2549;52.128;21.068;2023-03-04T16:22:16;5.80;78.00
5061;DHT22;2549;52.128;21.068;2023-03-04T16:24:45;5.60;78.10
5061;DHT22;2549;52.128;21.068;2023-03-04T16:27:13;5.50;76.70
5061;DHT22;2549;52.128;21.068;2023-03-04T16:29:41;5.40;76.50
5061;DHT22;2549;52.128;21.068;2023-03-04T16:32:08;5.50;77.40
5061;DHT22;2549;52.128;21.068;2023-03-04T16:34:36;5.50;77.60
5061;DHT22;2549;52.128;21.068;2023-03-04T16:37:11;5.40;77.60
5061;DHT22;2549;52.128;21.068;2023-03-04T16:39:38;5.40;76.60
5061;DHT22;2549;52.128;21.068;2023-03-04T16:42:14;5.20;74.20
5061;DHT22;2549;52.128;21.068;2023-03-04T16:44:42;5.10;69.80
5061;DHT22;2549;52.128;21.068;2023-03-04T16:47:09;5.00;68.90
5061;DHT22;2549;52.128;21.068;2023-03-04T16:49:36;5.00;68.30
5061;DHT22;2549;52.128;21.068;2023-03-04T16:52:04;5.00;68.40
5061;DHT22;2549;52.128;21.068;2023-03-04T16:54:34;5.00;66.70
5061;DHT22;2549;52.128;21.068;2023-03-04T16:57:01;5.10;65.20
5061;DHT22;2549;52.128;21.068;2023-03-04T16:59:28;5.10;64.00
5061;DHT22;2549;52.128;21.068;2023-03-04T17:01:56;5.00;63.80
5061;DHT22;2549;52.128;21.068;2023-03-04T17:04:23;4.90;63.40
5061;DHT22;2549;52.128;21.068;2023-03-04T17:06:49;5.00;62.20
5061;DHT22;2549;52.128;21.068;2023-03-04T17:09:16;5.00;62.40
5061;DHT22;2549;52.128;21.068;2023-03-04T17:11:43;5.10;61.80
5061;DHT22;2549;52.128;21.068;2023-03-04T17:14:11;5.00;59.60
5061;DHT22;2549;52.128;21.068;2023-03-04T17:16:38;4.90;60.00
5061;DHT22;2549;52.128;21.068;2023-03-04T17:19:05;4.80;60.60
5061;DHT22;2549;52.128;21.068;2023-03-04T17:21:31;4.90;60.00
5061;DHT22;2549;52.128;21.068;2023-03-04T17:23:58;4.90;60.10
5061;DHT22;2549;52.128;21.068;2023-03-04T17:26:25;5.00;60.10
5061;DHT22;2549;52.128;21.068;2023-03-04T17:28:52;5.00;61.30
5061;DHT22;2549;52.128;21.068;2023-03-04T17:31:20;5.00;62.00
5061;DHT22;2549;52.128;21.068;2023-03-04T17:33:47;5.10;63.10
5061;DHT22;2549;52.128;21.068;2023-03-04T17:36:15;5.00;61.30
5061;DHT22;2549;52.128;21.068;2023-03-04T17:38:44;4.80;62.00
5061;DHT22;2549;52.128;21.068;2023-03-04T17:41:13;4.90;62.00
5061;DHT22;2549;52.128;21.068;2023-03-04T17:46:12;4.80;61.80
5061;DHT22;2549;52.128;21.068;2023-03-04T17:48:40;4.80;61.60
5061;DHT22;2549;52.128;21.068;2023-03-04T17:51:08;4.70;60.60
5061;DHT22;2549;52.128;21.068;2023-03-04T17:53:35;4.50;60.60
5061;DHT22;2549;52.128;21.068;2023-03-04T17:56:04;4.40;61.90
5061;DHT22;2549;52.128;21.068;2023-03-04T17:58:35;4.40;61.80
5061;DHT22;2549;52.128;21.068;2023-03-04T18:01:05;4.40;61.00
5061;DHT22;2549;52.128;21.068;2023-03-04T18:03:33;4.40;60.90
5061;DHT22;2549;52.128;21.068;2023-03-04T18:05:59;4.30;60.10
5061;DHT22;2549;52.128;21.068;2023-03-04T18:08:26;4.30;60.00
5061;DHT22;2549;52.128;21.068;2023-03-04T18:10:53;4.30;59.70
5061;DHT22;2549;52.128;21.068;2023-03-04T18:13:20;4.20;59.30
5061;DHT22;2549;52.128;21.068;2023-03-04T18:15:47;4.10;59.20
5061;DHT22;2549;52.128;21.068;2023-03-04T18:18:14;4.20;58.30
5061;DHT22;2549;52.128;21.068;2023-03-04T18:20:40;4.20;57.90
5061;DHT22;2549;52.128;21.068;2023-03-04T18:23:08;4.20;57.60
5061;DHT22;2549;52.128;21.068;2023-03-04T18:25:35;4.20;57.70
5061;DHT22;2549;52.128;21.068;2023-03-04T18:28:02;4.20;57.10